<?xml version="1.0" encoding="UTF-8" standalone="no" ?>
<gpx xmlns="http://www.topografix.com/GPX/1/1" xmlns:xsi="http://www.w3.org/2001/XMLSchema-instance" xsi:schemaLocation="http://www.topografix.com/GPX/1/1 http://www.topografix.com/GPX/1/1/gpx.xsd" version="1.1" creator="VisuGPX - https://www.visugpx.com">
  <metadata>
    <name>La Tournai VTT 36km</name>
    <desc><![CDATA[

]]></desc>
  </metadata>
  <wpt lat="50.59761" lon="3.44297">
    <ele>36.4</ele>
    <name><![CDATA[RAVITO 2]]></name>
    <extensions>
      <visugpx:TrackPointExtension xmlns:visugpx="https://www.visugpx.com/editgpx/">
        <visugpx:dec>85,74</visugpx:dec>
      </visugpx:TrackPointExtension>
    </extensions>
  </wpt>
  <wpt lat="50.61249" lon="3.42961">
    <ele>22</ele>
    <name><![CDATA[RAVITO 3]]></name>
    <extensions>
      <visugpx:TrackPointExtension xmlns:visugpx="https://www.visugpx.com/editgpx/">
        <visugpx:dec>171,0</visugpx:dec>
      </visugpx:TrackPointExtension>
    </extensions>
  </wpt>
  <wpt lat="50.57999" lon="3.36336">
    <ele>39</ele>
    <name><![CDATA[RAVITO 1]]></name>
    <extensions>
      <visugpx:TrackPointExtension xmlns:visugpx="https://www.visugpx.com/editgpx/">
        <visugpx:dec>-100,84</visugpx:dec>
      </visugpx:TrackPointExtension>
    </extensions>
  </wpt>
  <trk>
    <name><![CDATA[La Tournai VTT 36km]]></name>
    <extensions>
      <line xmlns="http://www.topografix.com/GPX/gpx_style/0/2">
        <color>0000FF</color>
        <width>4</width>
          <extensions>
            <sens>1</sens>
          </extensions>
      </line>
    </extensions>
    <trkseg>
      <trkpt lat="50.63856" lon="3.38085">
        <ele>21</ele>
        <time>2024-09-11T18:38:51Z</time>
      </trkpt>
      <trkpt lat="50.63868" lon="3.38087">
        <ele>21</ele>
        <time>2024-09-11T18:38:54Z</time>
      </trkpt>
      <trkpt lat="50.63869" lon="3.38001">
        <ele>20</ele>
        <time>2024-09-11T18:39:07Z</time>
      </trkpt>
      <trkpt lat="50.63863" lon="3.37978">
        <ele>20</ele>
        <time>2024-09-11T18:39:10Z</time>
      </trkpt>
      <trkpt lat="50.63855" lon="3.37945">
        <ele>20</ele>
        <time>2024-09-11T18:39:15Z</time>
      </trkpt>
      <trkpt lat="50.638" lon="3.37898">
        <ele>19</ele>
        <time>2024-09-11T18:39:30Z</time>
      </trkpt>
      <trkpt lat="50.63809" lon="3.3783">
        <ele>19</ele>
        <time>2024-09-11T18:39:40Z</time>
      </trkpt>
      <trkpt lat="50.63751" lon="3.37787">
        <ele>18</ele>
        <time>2024-09-11T18:39:55Z</time>
      </trkpt>
      <trkpt lat="50.63712" lon="3.37697">
        <ele>19</ele>
        <time>2024-09-11T18:40:11Z</time>
      </trkpt>
      <trkpt lat="50.6357" lon="3.37621">
        <ele>17</ele>
        <time>2024-09-11T18:40:47Z</time>
      </trkpt>
      <trkpt lat="50.63506" lon="3.37624">
        <ele>17</ele>
        <time>2024-09-11T18:41:01Z</time>
      </trkpt>
      <trkpt lat="50.63474" lon="3.37645">
        <ele>18</ele>
        <time>2024-09-11T18:41:10Z</time>
      </trkpt>
      <trkpt lat="50.63429" lon="3.37377">
        <ele>16</ele>
        <time>2024-09-11T18:41:51Z</time>
      </trkpt>
      <trkpt lat="50.63302" lon="3.37089">
        <ele>17</ele>
        <time>2024-09-11T18:42:43Z</time>
      </trkpt>
      <trkpt lat="50.63195" lon="3.36888">
        <ele>15</ele>
        <time>2024-09-11T18:43:21Z</time>
      </trkpt>
      <trkpt lat="50.63109" lon="3.36989">
        <ele>15</ele>
        <time>2024-09-11T18:43:46Z</time>
      </trkpt>
      <trkpt lat="50.63159" lon="3.37132">
        <ele>18</ele>
        <time>2024-09-11T18:44:11Z</time>
      </trkpt>
      <trkpt lat="50.63147" lon="3.37136">
        <ele>17</ele>
        <time>2024-09-11T18:44:14Z</time>
      </trkpt>
      <trkpt lat="50.63016" lon="3.37084">
        <ele>13</ele>
        <time>2024-09-11T18:44:45Z</time>
      </trkpt>
      <trkpt lat="50.62962" lon="3.3712">
        <ele>14</ele>
        <time>2024-09-11T18:44:59Z</time>
      </trkpt>
      <trkpt lat="50.62858" lon="3.37234">
        <ele>13</ele>
        <time>2024-09-11T18:45:28Z</time>
      </trkpt>
      <trkpt lat="50.62776" lon="3.37278">
        <ele>14</ele>
        <time>2024-09-11T18:45:49Z</time>
      </trkpt>
      <trkpt lat="50.62774" lon="3.37246">
        <ele>14</ele>
        <time>2024-09-11T18:45:53Z</time>
      </trkpt>
      <trkpt lat="50.62789" lon="3.37218">
        <ele>14</ele>
        <time>2024-09-11T18:45:59Z</time>
      </trkpt>
      <trkpt lat="50.62781" lon="3.3718">
        <ele>14</ele>
        <time>2024-09-11T18:46:05Z</time>
      </trkpt>
      <trkpt lat="50.62806" lon="3.37161">
        <ele>14</ele>
        <time>2024-09-11T18:46:11Z</time>
      </trkpt>
      <trkpt lat="50.62792" lon="3.37112">
        <ele>14</ele>
        <time>2024-09-11T18:46:19Z</time>
      </trkpt>
      <trkpt lat="50.62799" lon="3.37106">
        <ele>14</ele>
        <time>2024-09-11T18:46:21Z</time>
      </trkpt>
      <trkpt lat="50.62771" lon="3.37033">
        <ele>16</ele>
        <time>2024-09-11T18:46:34Z</time>
      </trkpt>
      <trkpt lat="50.62832" lon="3.36947">
        <ele>15</ele>
        <time>2024-09-11T18:46:53Z</time>
      </trkpt>
      <trkpt lat="50.62871" lon="3.36947">
        <ele>15</ele>
        <time>2024-09-11T18:47:02Z</time>
      </trkpt>
      <trkpt lat="50.62896" lon="3.36973">
        <ele>15</ele>
        <time>2024-09-11T18:47:09Z</time>
      </trkpt>
      <trkpt lat="50.62964" lon="3.36949">
        <ele>16</ele>
        <time>2024-09-11T18:47:25Z</time>
      </trkpt>
      <trkpt lat="50.63065" lon="3.36857">
        <ele>15</ele>
        <time>2024-09-11T18:47:52Z</time>
      </trkpt>
      <trkpt lat="50.63079" lon="3.36835">
        <ele>15</ele>
        <time>2024-09-11T18:47:57Z</time>
      </trkpt>
      <trkpt lat="50.63115" lon="3.36796">
        <ele>16</ele>
        <time>2024-09-11T18:48:07Z</time>
      </trkpt>
      <trkpt lat="50.63131" lon="3.36761">
        <ele>16</ele>
        <time>2024-09-11T18:48:14Z</time>
      </trkpt>
      <trkpt lat="50.63127" lon="3.36728">
        <ele>16</ele>
        <time>2024-09-11T18:48:19Z</time>
      </trkpt>
      <trkpt lat="50.63056" lon="3.36503">
        <ele>19</ele>
        <time>2024-09-11T18:48:56Z</time>
      </trkpt>
      <trkpt lat="50.63043" lon="3.36424">
        <ele>21</ele>
        <time>2024-09-11T18:49:08Z</time>
      </trkpt>
      <trkpt lat="50.63055" lon="3.36344">
        <ele>19</ele>
        <time>2024-09-11T18:49:20Z</time>
      </trkpt>
      <trkpt lat="50.63079" lon="3.3622">
        <ele>17</ele>
        <time>2024-09-11T18:49:39Z</time>
      </trkpt>
      <trkpt lat="50.63068" lon="3.36179">
        <ele>17</ele>
        <time>2024-09-11T18:49:46Z</time>
      </trkpt>
      <trkpt lat="50.63046" lon="3.36082">
        <ele>18</ele>
        <time>2024-09-11T18:50:01Z</time>
      </trkpt>
      <trkpt lat="50.6313" lon="3.36015">
        <ele>18</ele>
        <time>2024-09-11T18:50:23Z</time>
      </trkpt>
      <trkpt lat="50.63063" lon="3.35874">
        <ele>19</ele>
        <time>2024-09-11T18:50:49Z</time>
      </trkpt>
      <trkpt lat="50.63306" lon="3.35609">
        <ele>19</ele>
        <time>2024-09-11T18:51:58Z</time>
      </trkpt>
      <trkpt lat="50.6329" lon="3.35595">
        <ele>19</ele>
        <time>2024-09-11T18:52:02Z</time>
      </trkpt>
      <trkpt lat="50.63434" lon="3.35432">
        <ele>16</ele>
        <time>2024-09-11T18:52:44Z</time>
      </trkpt>
      <trkpt lat="50.63311" lon="3.35199">
        <ele>16</ele>
        <time>2024-09-11T18:53:29Z</time>
      </trkpt>
      <trkpt lat="50.63045" lon="3.35379">
        <ele>19</ele>
        <time>2024-09-11T18:54:36Z</time>
      </trkpt>
      <trkpt lat="50.63005" lon="3.35469">
        <ele>18</ele>
        <time>2024-09-11T18:54:53Z</time>
      </trkpt>
      <trkpt lat="50.62962" lon="3.35456">
        <ele>18</ele>
        <time>2024-09-11T18:55:03Z</time>
      </trkpt>
      <trkpt lat="50.62851" lon="3.35164">
        <ele>15</ele>
        <time>2024-09-11T18:55:53Z</time>
      </trkpt>
      <trkpt lat="50.62754" lon="3.35008">
        <ele>21</ele>
        <time>2024-09-11T18:56:26Z</time>
      </trkpt>
      <trkpt lat="50.62779" lon="3.34982">
        <ele>21</ele>
        <time>2024-09-11T18:56:33Z</time>
      </trkpt>
      <trkpt lat="50.62781" lon="3.3501">
        <ele>19</ele>
        <time>2024-09-11T18:56:37Z</time>
      </trkpt>
      <trkpt lat="50.62785" lon="3.35022">
        <ele>18</ele>
        <time>2024-09-11T18:56:39Z</time>
      </trkpt>
      <trkpt lat="50.62815" lon="3.35052">
        <ele>16</ele>
        <time>2024-09-11T18:56:47Z</time>
      </trkpt>
      <trkpt lat="50.62832" lon="3.35052">
        <ele>15</ele>
        <time>2024-09-11T18:56:51Z</time>
      </trkpt>
      <trkpt lat="50.62854" lon="3.35022">
        <ele>15</ele>
        <time>2024-09-11T18:56:58Z</time>
      </trkpt>
      <trkpt lat="50.62859" lon="3.34979">
        <ele>16</ele>
        <time>2024-09-11T18:57:04Z</time>
      </trkpt>
      <trkpt lat="50.62859" lon="3.34972">
        <ele>16</ele>
        <time>2024-09-11T18:57:05Z</time>
      </trkpt>
      <trkpt lat="50.62847" lon="3.34969">
        <ele>17</ele>
        <time>2024-09-11T18:57:08Z</time>
      </trkpt>
      <trkpt lat="50.62837" lon="3.3498">
        <ele>17</ele>
        <time>2024-09-11T18:57:11Z</time>
      </trkpt>
      <trkpt lat="50.62832" lon="3.34997">
        <ele>16</ele>
        <time>2024-09-11T18:57:14Z</time>
      </trkpt>
      <trkpt lat="50.62826" lon="3.34994">
        <ele>17</ele>
        <time>2024-09-11T18:57:15Z</time>
      </trkpt>
      <trkpt lat="50.62825" lon="3.34979">
        <ele>18</ele>
        <time>2024-09-11T18:57:18Z</time>
      </trkpt>
      <trkpt lat="50.62834" lon="3.34917">
        <ele>20</ele>
        <time>2024-09-11T18:57:27Z</time>
      </trkpt>
      <trkpt lat="50.62829" lon="3.34895">
        <ele>22</ele>
        <time>2024-09-11T18:57:30Z</time>
      </trkpt>
      <trkpt lat="50.62824" lon="3.34887">
        <ele>23</ele>
        <time>2024-09-11T18:57:32Z</time>
      </trkpt>
      <trkpt lat="50.62805" lon="3.3488">
        <ele>25</ele>
        <time>2024-09-11T18:57:37Z</time>
      </trkpt>
      <trkpt lat="50.62781" lon="3.34892">
        <ele>26</ele>
        <time>2024-09-11T18:57:43Z</time>
      </trkpt>
      <trkpt lat="50.62772" lon="3.34799">
        <ele>28</ele>
        <time>2024-09-11T18:57:57Z</time>
      </trkpt>
      <trkpt lat="50.62777" lon="3.34721">
        <ele>25</ele>
        <time>2024-09-11T18:58:08Z</time>
      </trkpt>
      <trkpt lat="50.62782" lon="3.34691">
        <ele>23</ele>
        <time>2024-09-11T18:58:13Z</time>
      </trkpt>
      <trkpt lat="50.62789" lon="3.34687">
        <ele>23</ele>
        <time>2024-09-11T18:58:14Z</time>
      </trkpt>
      <trkpt lat="50.62824" lon="3.34685">
        <ele>24</ele>
        <time>2024-09-11T18:58:23Z</time>
      </trkpt>
      <trkpt lat="50.62846" lon="3.34673">
        <ele>23</ele>
        <time>2024-09-11T18:58:28Z</time>
      </trkpt>
      <trkpt lat="50.62889" lon="3.34689">
        <ele>21</ele>
        <time>2024-09-11T18:58:38Z</time>
      </trkpt>
      <trkpt lat="50.62905" lon="3.34722">
        <ele>20</ele>
        <time>2024-09-11T18:58:45Z</time>
      </trkpt>
      <trkpt lat="50.62905" lon="3.34745">
        <ele>20</ele>
        <time>2024-09-11T18:58:48Z</time>
      </trkpt>
      <trkpt lat="50.62901" lon="3.34754">
        <ele>21</ele>
        <time>2024-09-11T18:58:50Z</time>
      </trkpt>
      <trkpt lat="50.62902" lon="3.34775">
        <ele>20</ele>
        <time>2024-09-11T18:58:53Z</time>
      </trkpt>
      <trkpt lat="50.62912" lon="3.34791">
        <ele>18</ele>
        <time>2024-09-11T18:58:56Z</time>
      </trkpt>
      <trkpt lat="50.62933" lon="3.34801">
        <ele>16</ele>
        <time>2024-09-11T18:59:01Z</time>
      </trkpt>
      <trkpt lat="50.62954" lon="3.34802">
        <ele>15</ele>
        <time>2024-09-11T18:59:06Z</time>
      </trkpt>
      <trkpt lat="50.63002" lon="3.3477">
        <ele>13</ele>
        <time>2024-09-11T18:59:18Z</time>
      </trkpt>
      <trkpt lat="50.63003" lon="3.34727">
        <ele>13</ele>
        <time>2024-09-11T18:59:25Z</time>
      </trkpt>
      <trkpt lat="50.63018" lon="3.34691">
        <ele>13</ele>
        <time>2024-09-11T18:59:31Z</time>
      </trkpt>
      <trkpt lat="50.63023" lon="3.34658">
        <ele>13</ele>
        <time>2024-09-11T18:59:36Z</time>
      </trkpt>
      <trkpt lat="50.63032" lon="3.34646">
        <ele>12</ele>
        <time>2024-09-11T18:59:39Z</time>
      </trkpt>
      <trkpt lat="50.63048" lon="3.34641">
        <ele>12</ele>
        <time>2024-09-11T18:59:43Z</time>
      </trkpt>
      <trkpt lat="50.63055" lon="3.34609">
        <ele>12</ele>
        <time>2024-09-11T18:59:48Z</time>
      </trkpt>
      <trkpt lat="50.63046" lon="3.34597">
        <ele>12</ele>
        <time>2024-09-11T18:59:50Z</time>
      </trkpt>
      <trkpt lat="50.63009" lon="3.346">
        <ele>12</ele>
        <time>2024-09-11T18:59:59Z</time>
      </trkpt>
      <trkpt lat="50.62957" lon="3.3456">
        <ele>14</ele>
        <time>2024-09-11T19:00:12Z</time>
      </trkpt>
      <trkpt lat="50.62939" lon="3.34577">
        <ele>16</ele>
        <time>2024-09-11T19:00:17Z</time>
      </trkpt>
      <trkpt lat="50.62935" lon="3.34575">
        <ele>16</ele>
        <time>2024-09-11T19:00:18Z</time>
      </trkpt>
      <trkpt lat="50.62922" lon="3.3454">
        <ele>15</ele>
        <time>2024-09-11T19:00:24Z</time>
      </trkpt>
      <trkpt lat="50.62935" lon="3.34497">
        <ele>14</ele>
        <time>2024-09-11T19:00:31Z</time>
      </trkpt>
      <trkpt lat="50.62943" lon="3.34491">
        <ele>14</ele>
        <time>2024-09-11T19:00:34Z</time>
      </trkpt>
      <trkpt lat="50.62969" lon="3.345">
        <ele>14</ele>
        <time>2024-09-11T19:00:40Z</time>
      </trkpt>
      <trkpt lat="50.62992" lon="3.345">
        <ele>14</ele>
        <time>2024-09-11T19:00:45Z</time>
      </trkpt>
      <trkpt lat="50.62998" lon="3.34505">
        <ele>14</ele>
        <time>2024-09-11T19:00:47Z</time>
      </trkpt>
      <trkpt lat="50.63009" lon="3.34544">
        <ele>13</ele>
        <time>2024-09-11T19:00:53Z</time>
      </trkpt>
      <trkpt lat="50.63036" lon="3.34512">
        <ele>14</ele>
        <time>2024-09-11T19:01:01Z</time>
      </trkpt>
      <trkpt lat="50.63044" lon="3.34475">
        <ele>14</ele>
        <time>2024-09-11T19:01:07Z</time>
      </trkpt>
      <trkpt lat="50.63051" lon="3.34465">
        <ele>14</ele>
        <time>2024-09-11T19:01:09Z</time>
      </trkpt>
      <trkpt lat="50.63061" lon="3.34433">
        <ele>15</ele>
        <time>2024-09-11T19:01:14Z</time>
      </trkpt>
      <trkpt lat="50.63066" lon="3.34414">
        <ele>15</ele>
        <time>2024-09-11T19:01:17Z</time>
      </trkpt>
      <trkpt lat="50.63061" lon="3.3439">
        <ele>15</ele>
        <time>2024-09-11T19:01:21Z</time>
      </trkpt>
      <trkpt lat="50.63053" lon="3.34383">
        <ele>15</ele>
        <time>2024-09-11T19:01:23Z</time>
      </trkpt>
      <trkpt lat="50.63031" lon="3.34382">
        <ele>15</ele>
        <time>2024-09-11T19:01:28Z</time>
      </trkpt>
      <trkpt lat="50.63002" lon="3.34399">
        <ele>15</ele>
        <time>2024-09-11T19:01:35Z</time>
      </trkpt>
      <trkpt lat="50.62992" lon="3.34381">
        <ele>15</ele>
        <time>2024-09-11T19:01:39Z</time>
      </trkpt>
      <trkpt lat="50.62989" lon="3.3435">
        <ele>15</ele>
        <time>2024-09-11T19:01:44Z</time>
      </trkpt>
      <trkpt lat="50.62856" lon="3.34444">
        <ele>15</ele>
        <time>2024-09-11T19:02:18Z</time>
      </trkpt>
      <trkpt lat="50.62836" lon="3.34404">
        <ele>16</ele>
        <time>2024-09-11T19:02:25Z</time>
      </trkpt>
      <trkpt lat="50.62731" lon="3.34524">
        <ele>18</ele>
        <time>2024-09-11T19:02:56Z</time>
      </trkpt>
      <trkpt lat="50.62608" lon="3.34766">
        <ele>22</ele>
        <time>2024-09-11T19:03:41Z</time>
      </trkpt>
      <trkpt lat="50.62551" lon="3.34838">
        <ele>20</ele>
        <time>2024-09-11T19:03:59Z</time>
      </trkpt>
      <trkpt lat="50.6253" lon="3.34894">
        <ele>17</ele>
        <time>2024-09-11T19:04:08Z</time>
      </trkpt>
      <trkpt lat="50.62478" lon="3.3497">
        <ele>16</ele>
        <time>2024-09-11T19:04:25Z</time>
      </trkpt>
      <trkpt lat="50.62433" lon="3.34933">
        <ele>18</ele>
        <time>2024-09-11T19:04:37Z</time>
      </trkpt>
      <trkpt lat="50.62279" lon="3.34742">
        <ele>24</ele>
        <time>2024-09-11T19:05:22Z</time>
      </trkpt>
      <trkpt lat="50.62109" lon="3.35001">
        <ele>24</ele>
        <time>2024-09-11T19:06:18Z</time>
      </trkpt>
      <trkpt lat="50.62008" lon="3.3504">
        <ele>27</ele>
        <time>2024-09-11T19:06:42Z</time>
      </trkpt>
      <trkpt lat="50.61818" lon="3.35342">
        <ele>29</ele>
        <time>2024-09-11T19:07:45Z</time>
      </trkpt>
      <trkpt lat="50.618" lon="3.35399">
        <ele>28</ele>
        <time>2024-09-11T19:07:54Z</time>
      </trkpt>
      <trkpt lat="50.6179" lon="3.35408">
        <ele>27</ele>
        <time>2024-09-11T19:07:57Z</time>
      </trkpt>
      <trkpt lat="50.61749" lon="3.35382">
        <ele>28</ele>
        <time>2024-09-11T19:08:07Z</time>
      </trkpt>
      <trkpt lat="50.61716" lon="3.35442">
        <ele>26</ele>
        <time>2024-09-11T19:08:19Z</time>
      </trkpt>
      <trkpt lat="50.61377" lon="3.35658">
        <ele>25</ele>
        <time>2024-09-11T19:09:44Z</time>
      </trkpt>
      <trkpt lat="50.6128" lon="3.35555">
        <ele>29</ele>
        <time>2024-09-11T19:10:12Z</time>
      </trkpt>
      <trkpt lat="50.61215" lon="3.35444">
        <ele>26</ele>
        <time>2024-09-11T19:10:34Z</time>
      </trkpt>
      <trkpt lat="50.61159" lon="3.35446">
        <ele>26</ele>
        <time>2024-09-11T19:10:47Z</time>
      </trkpt>
      <trkpt lat="50.61104" lon="3.35422">
        <ele>29</ele>
        <time>2024-09-11T19:11:01Z</time>
      </trkpt>
      <trkpt lat="50.61039" lon="3.35441">
        <ele>31</ele>
        <time>2024-09-11T19:11:16Z</time>
      </trkpt>
      <trkpt lat="50.60943" lon="3.3544">
        <ele>35</ele>
        <time>2024-09-11T19:11:38Z</time>
      </trkpt>
      <trkpt lat="50.60915" lon="3.35475">
        <ele>34</ele>
        <time>2024-09-11T19:11:47Z</time>
      </trkpt>
      <trkpt lat="50.60871" lon="3.35486">
        <ele>38</ele>
        <time>2024-09-11T19:11:57Z</time>
      </trkpt>
      <trkpt lat="50.60857" lon="3.35632">
        <ele>42</ele>
        <time>2024-09-11T19:12:19Z</time>
      </trkpt>
      <trkpt lat="50.6084" lon="3.35793">
        <ele>38</ele>
        <time>2024-09-11T19:12:43Z</time>
      </trkpt>
      <trkpt lat="50.60843" lon="3.36033">
        <ele>35</ele>
        <time>2024-09-11T19:13:19Z</time>
      </trkpt>
      <trkpt lat="50.60831" lon="3.36113">
        <ele>36</ele>
        <time>2024-09-11T19:13:31Z</time>
      </trkpt>
      <trkpt lat="50.60458" lon="3.36023">
        <ele>45</ele>
        <time>2024-09-11T19:14:59Z</time>
      </trkpt>
      <trkpt lat="50.6018" lon="3.36034">
        <ele>48</ele>
        <time>2024-09-11T19:16:04Z</time>
      </trkpt>
      <trkpt lat="50.60092" lon="3.36069">
        <ele>48</ele>
        <time>2024-09-11T19:16:25Z</time>
      </trkpt>
      <trkpt lat="50.60021" lon="3.36065">
        <ele>49</ele>
        <time>2024-09-11T19:16:42Z</time>
      </trkpt>
      <trkpt lat="50.59959" lon="3.36062">
        <ele>50</ele>
        <time>2024-09-11T19:16:56Z</time>
      </trkpt>
      <trkpt lat="50.5994" lon="3.36053">
        <ele>51</ele>
        <time>2024-09-11T19:17:01Z</time>
      </trkpt>
      <trkpt lat="50.59882" lon="3.36002">
        <ele>51</ele>
        <time>2024-09-11T19:17:16Z</time>
      </trkpt>
      <trkpt lat="50.59835" lon="3.35998">
        <ele>52</ele>
        <time>2024-09-11T19:17:27Z</time>
      </trkpt>
      <trkpt lat="50.59813" lon="3.36014">
        <ele>52</ele>
        <time>2024-09-11T19:17:33Z</time>
      </trkpt>
      <trkpt lat="50.59796" lon="3.36033">
        <ele>51</ele>
        <time>2024-09-11T19:17:38Z</time>
      </trkpt>
      <trkpt lat="50.59764" lon="3.36068">
        <ele>51</ele>
        <time>2024-09-11T19:17:47Z</time>
      </trkpt>
      <trkpt lat="50.59663" lon="3.36073">
        <ele>48</ele>
        <time>2024-09-11T19:18:11Z</time>
      </trkpt>
      <trkpt lat="50.5958" lon="3.36058">
        <ele>49</ele>
        <time>2024-09-11T19:18:30Z</time>
      </trkpt>
      <trkpt lat="50.59467" lon="3.36036">
        <ele>54</ele>
        <time>2024-09-11T19:18:57Z</time>
      </trkpt>
      <trkpt lat="50.59422" lon="3.36021">
        <ele>59</ele>
        <time>2024-09-11T19:19:08Z</time>
      </trkpt>
      <trkpt lat="50.59386" lon="3.36019">
        <ele>59</ele>
        <time>2024-09-11T19:19:16Z</time>
      </trkpt>
      <trkpt lat="50.59324" lon="3.36017">
        <ele>59</ele>
        <time>2024-09-11T19:19:30Z</time>
      </trkpt>
      <trkpt lat="50.5922" lon="3.36039">
        <ele>58</ele>
        <time>2024-09-11T19:19:55Z</time>
      </trkpt>
      <trkpt lat="50.59028" lon="3.36105">
        <ele>52</ele>
        <time>2024-09-11T19:20:41Z</time>
      </trkpt>
      <trkpt lat="50.58845" lon="3.36168">
        <ele>47</ele>
        <time>2024-09-11T19:21:25Z</time>
      </trkpt>
      <trkpt lat="50.58806" lon="3.36193">
        <ele>47</ele>
        <time>2024-09-11T19:21:34Z</time>
      </trkpt>
      <trkpt lat="50.58731" lon="3.36294">
        <ele>46</ele>
        <time>2024-09-11T19:21:57Z</time>
      </trkpt>
      <trkpt lat="50.58667" lon="3.36356">
        <ele>46</ele>
        <time>2024-09-11T19:22:15Z</time>
      </trkpt>
      <trkpt lat="50.58535" lon="3.36459">
        <ele>44</ele>
        <time>2024-09-11T19:22:49Z</time>
      </trkpt>
      <trkpt lat="50.58348" lon="3.36217">
        <ele>46</ele>
        <time>2024-09-11T19:23:46Z</time>
      </trkpt>
      <trkpt lat="50.58278" lon="3.3614">
        <ele>47</ele>
        <time>2024-09-11T19:24:06Z</time>
      </trkpt>
      <trkpt lat="50.58242" lon="3.36136">
        <ele>47</ele>
        <time>2024-09-11T19:24:14Z</time>
      </trkpt>
      <trkpt lat="50.58168" lon="3.3621">
        <ele>45</ele>
        <time>2024-09-11T19:24:35Z</time>
      </trkpt>
      <trkpt lat="50.58074" lon="3.3624">
        <ele>43</ele>
        <time>2024-09-11T19:24:57Z</time>
      </trkpt>
      <trkpt lat="50.57931" lon="3.36207">
        <ele>36</ele>
        <time>2024-09-11T19:25:31Z</time>
      </trkpt>
      <trkpt lat="50.57856" lon="3.3622">
        <ele>32</ele>
        <time>2024-09-11T19:25:49Z</time>
      </trkpt>
      <trkpt lat="50.57942" lon="3.36512">
        <ele>33</ele>
        <time>2024-09-11T19:26:36Z</time>
      </trkpt>
      <trkpt lat="50.57792" lon="3.36529">
        <ele>36</ele>
        <time>2024-09-11T19:27:11Z</time>
      </trkpt>
      <trkpt lat="50.57607" lon="3.36435">
        <ele>42</ele>
        <time>2024-09-11T19:27:57Z</time>
      </trkpt>
      <trkpt lat="50.57255" lon="3.36568">
        <ele>49</ele>
        <time>2024-09-11T19:29:21Z</time>
      </trkpt>
      <trkpt lat="50.57201" lon="3.36392">
        <ele>49</ele>
        <time>2024-09-11T19:29:50Z</time>
      </trkpt>
      <trkpt lat="50.56942" lon="3.36422">
        <ele>55</ele>
        <time>2024-09-11T19:30:51Z</time>
      </trkpt>
      <trkpt lat="50.568" lon="3.36504">
        <ele>56</ele>
        <time>2024-09-11T19:31:26Z</time>
      </trkpt>
      <trkpt lat="50.56635" lon="3.36579">
        <ele>56</ele>
        <time>2024-09-11T19:32:06Z</time>
      </trkpt>
      <trkpt lat="50.5654" lon="3.36718">
        <ele>58</ele>
        <time>2024-09-11T19:32:37Z</time>
      </trkpt>
      <trkpt lat="50.56394" lon="3.36965">
        <ele>60</ele>
        <time>2024-09-11T19:33:27Z</time>
      </trkpt>
      <trkpt lat="50.56284" lon="3.37289">
        <ele>66</ele>
        <time>2024-09-11T19:34:21Z</time>
      </trkpt>
      <trkpt lat="50.56339" lon="3.37456">
        <ele>71</ele>
        <time>2024-09-11T19:34:49Z</time>
      </trkpt>
      <trkpt lat="50.56206" lon="3.37632">
        <ele>65</ele>
        <time>2024-09-11T19:35:30Z</time>
      </trkpt>
      <trkpt lat="50.5625" lon="3.37834">
        <ele>64</ele>
        <time>2024-09-11T19:36:01Z</time>
      </trkpt>
      <trkpt lat="50.56367" lon="3.381">
        <ele>69</ele>
        <time>2024-09-11T19:36:49Z</time>
      </trkpt>
      <trkpt lat="50.5639" lon="3.38291">
        <ele>71</ele>
        <time>2024-09-11T19:37:18Z</time>
      </trkpt>
      <trkpt lat="50.56327" lon="3.384">
        <ele>65</ele>
        <time>2024-09-11T19:37:40Z</time>
      </trkpt>
      <trkpt lat="50.56443" lon="3.3857">
        <ele>65</ele>
        <time>2024-09-11T19:38:17Z</time>
      </trkpt>
      <trkpt lat="50.56551" lon="3.38681">
        <ele>67</ele>
        <time>2024-09-11T19:38:47Z</time>
      </trkpt>
      <trkpt lat="50.56962" lon="3.38939">
        <ele>70</ele>
        <time>2024-09-11T19:40:31Z</time>
      </trkpt>
      <trkpt lat="50.56995" lon="3.39018">
        <ele>68</ele>
        <time>2024-09-11T19:40:45Z</time>
      </trkpt>
      <trkpt lat="50.57028" lon="3.38995">
        <ele>69</ele>
        <time>2024-09-11T19:40:53Z</time>
      </trkpt>
      <trkpt lat="50.57115" lon="3.39044">
        <ele>68</ele>
        <time>2024-09-11T19:41:15Z</time>
      </trkpt>
      <trkpt lat="50.57029" lon="3.39375">
        <ele>61</ele>
        <time>2024-09-11T19:42:08Z</time>
      </trkpt>
      <trkpt lat="50.57277" lon="3.3948">
        <ele>62</ele>
        <time>2024-09-11T19:43:08Z</time>
      </trkpt>
      <trkpt lat="50.5739" lon="3.40243">
        <ele>50</ele>
        <time>2024-09-11T19:45:04Z</time>
      </trkpt>
      <trkpt lat="50.58799" lon="3.39819">
        <ele>43</ele>
        <time>2024-09-11T19:50:39Z</time>
      </trkpt>
      <trkpt lat="50.58821" lon="3.39746">
        <ele>44</ele>
        <time>2024-09-11T19:50:51Z</time>
      </trkpt>
      <trkpt lat="50.58885" lon="3.39765">
        <ele>35</ele>
        <time>2024-09-11T19:51:06Z</time>
      </trkpt>
      <trkpt lat="50.58935" lon="3.39808">
        <ele>32</ele>
        <time>2024-09-11T19:51:19Z</time>
      </trkpt>
      <trkpt lat="50.58976" lon="3.39868">
        <ele>31</ele>
        <time>2024-09-11T19:51:32Z</time>
      </trkpt>
      <trkpt lat="50.58963" lon="3.39941">
        <ele>33</ele>
        <time>2024-09-11T19:51:44Z</time>
      </trkpt>
      <trkpt lat="50.58995" lon="3.39996">
        <ele>31</ele>
        <time>2024-09-11T19:51:55Z</time>
      </trkpt>
      <trkpt lat="50.59057" lon="3.40225">
        <ele>25</ele>
        <time>2024-09-11T19:52:32Z</time>
      </trkpt>
      <trkpt lat="50.59134" lon="3.40209">
        <ele>24</ele>
        <time>2024-09-11T19:52:50Z</time>
      </trkpt>
      <trkpt lat="50.59189" lon="3.40306">
        <ele>24</ele>
        <time>2024-09-11T19:53:09Z</time>
      </trkpt>
      <trkpt lat="50.59215" lon="3.40426">
        <ele>24</ele>
        <time>2024-09-11T19:53:28Z</time>
      </trkpt>
      <trkpt lat="50.5919" lon="3.40628">
        <ele>30</ele>
        <time>2024-09-11T19:53:58Z</time>
      </trkpt>
      <trkpt lat="50.59104" lon="3.4072">
        <ele>32</ele>
        <time>2024-09-11T19:54:23Z</time>
      </trkpt>
      <trkpt lat="50.59227" lon="3.40814">
        <ele>31</ele>
        <time>2024-09-11T19:54:54Z</time>
      </trkpt>
      <trkpt lat="50.59281" lon="3.40786">
        <ele>28</ele>
        <time>2024-09-11T19:55:08Z</time>
      </trkpt>
      <trkpt lat="50.59326" lon="3.40896">
        <ele>26</ele>
        <time>2024-09-11T19:55:27Z</time>
      </trkpt>
      <trkpt lat="50.59419" lon="3.40984">
        <ele>20</ele>
        <time>2024-09-11T19:55:52Z</time>
      </trkpt>
      <trkpt lat="50.59437" lon="3.40973">
        <ele>20</ele>
        <time>2024-09-11T19:55:57Z</time>
      </trkpt>
      <trkpt lat="50.59544" lon="3.41074">
        <ele>18</ele>
        <time>2024-09-11T19:56:26Z</time>
      </trkpt>
      <trkpt lat="50.59486" lon="3.41175">
        <ele>17</ele>
        <time>2024-09-11T19:56:46Z</time>
      </trkpt>
      <trkpt lat="50.59269" lon="3.41681">
        <ele>16</ele>
        <time>2024-09-11T19:58:17Z</time>
      </trkpt>
      <trkpt lat="50.5921" lon="3.4177">
        <ele>18</ele>
        <time>2024-09-11T19:58:36Z</time>
      </trkpt>
      <trkpt lat="50.59168" lon="3.41888">
        <ele>17</ele>
        <time>2024-09-11T19:58:56Z</time>
      </trkpt>
      <trkpt lat="50.59144" lon="3.41925">
        <ele>18</ele>
        <time>2024-09-11T19:59:04Z</time>
      </trkpt>
      <trkpt lat="50.59127" lon="3.4198">
        <ele>17</ele>
        <time>2024-09-11T19:59:13Z</time>
      </trkpt>
      <trkpt lat="50.59106" lon="3.41999">
        <ele>17</ele>
        <time>2024-09-11T19:59:19Z</time>
      </trkpt>
      <trkpt lat="50.59097" lon="3.42042">
        <ele>15</ele>
        <time>2024-09-11T19:59:25Z</time>
      </trkpt>
      <trkpt lat="50.59062" lon="3.42093">
        <ele>16</ele>
        <time>2024-09-11T19:59:36Z</time>
      </trkpt>
      <trkpt lat="50.59011" lon="3.42203">
        <ele>15</ele>
        <time>2024-09-11T19:59:57Z</time>
      </trkpt>
      <trkpt lat="50.58863" lon="3.42509">
        <ele>19</ele>
        <time>2024-09-11T20:00:54Z</time>
      </trkpt>
      <trkpt lat="50.58839" lon="3.42587">
        <ele>16</ele>
        <time>2024-09-11T20:01:06Z</time>
      </trkpt>
      <trkpt lat="50.58776" lon="3.42489">
        <ele>22</ele>
        <time>2024-09-11T20:01:27Z</time>
      </trkpt>
      <trkpt lat="50.58806" lon="3.42546">
        <ele>19</ele>
        <time>2024-09-11T20:01:38Z</time>
      </trkpt>
      <trkpt lat="50.58915" lon="3.42746">
        <ele>17</ele>
        <time>2024-09-11T20:02:17Z</time>
      </trkpt>
      <trkpt lat="50.58927" lon="3.42691">
        <ele>17</ele>
        <time>2024-09-11T20:02:26Z</time>
      </trkpt>
      <trkpt lat="50.58881" lon="3.42626">
        <ele>15</ele>
        <time>2024-09-11T20:02:40Z</time>
      </trkpt>
      <trkpt lat="50.59047" lon="3.42315">
        <ele>12</ele>
        <time>2024-09-11T20:03:41Z</time>
      </trkpt>
      <trkpt lat="50.59131" lon="3.42148">
        <ele>14</ele>
        <time>2024-09-11T20:04:12Z</time>
      </trkpt>
      <trkpt lat="50.59499" lon="3.4128">
        <ele>14</ele>
        <time>2024-09-11T20:06:47Z</time>
      </trkpt>
      <trkpt lat="50.59593" lon="3.41104">
        <ele>17</ele>
        <time>2024-09-11T20:07:21Z</time>
      </trkpt>
      <trkpt lat="50.59716" lon="3.40962">
        <ele>17</ele>
        <time>2024-09-11T20:07:57Z</time>
      </trkpt>
      <trkpt lat="50.59757" lon="3.40874">
        <ele>15</ele>
        <time>2024-09-11T20:08:13Z</time>
      </trkpt>
      <trkpt lat="50.59783" lon="3.409">
        <ele>18</ele>
        <time>2024-09-11T20:08:20Z</time>
      </trkpt>
      <trkpt lat="50.59723" lon="3.41065">
        <ele>19</ele>
        <time>2024-09-11T20:08:48Z</time>
      </trkpt>
      <trkpt lat="50.59731" lon="3.41138">
        <ele>20</ele>
        <time>2024-09-11T20:08:59Z</time>
      </trkpt>
      <trkpt lat="50.59668" lon="3.41229">
        <ele>20</ele>
        <time>2024-09-11T20:09:19Z</time>
      </trkpt>
      <trkpt lat="50.5972" lon="3.41239">
        <ele>21</ele>
        <time>2024-09-11T20:09:31Z</time>
      </trkpt>
      <trkpt lat="50.59748" lon="3.41233">
        <ele>22</ele>
        <time>2024-09-11T20:09:38Z</time>
      </trkpt>
      <trkpt lat="50.59963" lon="3.41262">
        <ele>26</ele>
        <time>2024-09-11T20:10:28Z</time>
      </trkpt>
      <trkpt lat="50.59966" lon="3.41293">
        <ele>27</ele>
        <time>2024-09-11T20:10:33Z</time>
      </trkpt>
      <trkpt lat="50.60034" lon="3.41275">
        <ele>26</ele>
        <time>2024-09-11T20:10:49Z</time>
      </trkpt>
      <trkpt lat="50.60341" lon="3.41313">
        <ele>28</ele>
        <time>2024-09-11T20:12:01Z</time>
      </trkpt>
      <trkpt lat="50.60366" lon="3.41304">
        <ele>28</ele>
        <time>2024-09-11T20:12:07Z</time>
      </trkpt>
      <trkpt lat="50.6044" lon="3.41307">
        <ele>26</ele>
        <time>2024-09-11T20:12:24Z</time>
      </trkpt>
      <trkpt lat="50.60615" lon="3.41254">
        <ele>26</ele>
        <time>2024-09-11T20:13:06Z</time>
      </trkpt>
      <trkpt lat="50.60732" lon="3.4116">
        <ele>23</ele>
        <time>2024-09-11T20:13:37Z</time>
      </trkpt>
      <trkpt lat="50.60744" lon="3.41182">
        <ele>22</ele>
        <time>2024-09-11T20:13:41Z</time>
      </trkpt>
      <trkpt lat="50.60763" lon="3.41131">
        <ele>22</ele>
        <time>2024-09-11T20:13:50Z</time>
      </trkpt>
      <trkpt lat="50.60788" lon="3.41105">
        <ele>21</ele>
        <time>2024-09-11T20:13:57Z</time>
      </trkpt>
      <trkpt lat="50.60865" lon="3.41205">
        <ele>19</ele>
        <time>2024-09-11T20:14:20Z</time>
      </trkpt>
      <trkpt lat="50.60814" lon="3.41385">
        <ele>20</ele>
        <time>2024-09-11T20:14:49Z</time>
      </trkpt>
      <trkpt lat="50.60834" lon="3.41395">
        <ele>20</ele>
        <time>2024-09-11T20:14:54Z</time>
      </trkpt>
      <trkpt lat="50.60878" lon="3.41225">
        <ele>19</ele>
        <time>2024-09-11T20:15:21Z</time>
      </trkpt>
      <trkpt lat="50.6094" lon="3.41292">
        <ele>18</ele>
        <time>2024-09-11T20:15:39Z</time>
      </trkpt>
      <trkpt lat="50.60984" lon="3.41382">
        <ele>16</ele>
        <time>2024-09-11T20:15:56Z</time>
      </trkpt>
      <trkpt lat="50.6091" lon="3.41621">
        <ele>20</ele>
        <time>2024-09-11T20:16:35Z</time>
      </trkpt>
      <trkpt lat="50.60999" lon="3.41682">
        <ele>20</ele>
        <time>2024-09-11T20:16:58Z</time>
      </trkpt>
      <trkpt lat="50.61089" lon="3.41775">
        <ele>18</ele>
        <time>2024-09-11T20:17:23Z</time>
      </trkpt>
      <trkpt lat="50.61053" lon="3.41851">
        <ele>18</ele>
        <time>2024-09-11T20:17:37Z</time>
      </trkpt>
      <trkpt lat="50.61194" lon="3.41999">
        <ele>18</ele>
        <time>2024-09-11T20:18:16Z</time>
      </trkpt>
      <trkpt lat="50.61219" lon="3.41956">
        <ele>18</ele>
        <time>2024-09-11T20:18:25Z</time>
      </trkpt>
      <trkpt lat="50.61052" lon="3.41146">
        <ele>17</ele>
        <time>2024-09-11T20:20:31Z</time>
      </trkpt>
      <trkpt lat="50.61129" lon="3.41106">
        <ele>16</ele>
        <time>2024-09-11T20:20:50Z</time>
      </trkpt>
      <trkpt lat="50.61041" lon="3.40994">
        <ele>15</ele>
        <time>2024-09-11T20:21:17Z</time>
      </trkpt>
      <trkpt lat="50.61043" lon="3.40907">
        <ele>15</ele>
        <time>2024-09-11T20:21:30Z</time>
      </trkpt>
      <trkpt lat="50.6106" lon="3.40852">
        <ele>16</ele>
        <time>2024-09-11T20:21:39Z</time>
      </trkpt>
      <trkpt lat="50.61141" lon="3.4087">
        <ele>16</ele>
        <time>2024-09-11T20:21:58Z</time>
      </trkpt>
      <trkpt lat="50.61262" lon="3.40811">
        <ele>18</ele>
        <time>2024-09-11T20:22:27Z</time>
      </trkpt>
      <trkpt lat="50.61292" lon="3.40827">
        <ele>18</ele>
        <time>2024-09-11T20:22:35Z</time>
      </trkpt>
      <trkpt lat="50.61317" lon="3.40811">
        <ele>19</ele>
        <time>2024-09-11T20:22:41Z</time>
      </trkpt>
      <trkpt lat="50.61368" lon="3.40989">
        <ele>18</ele>
        <time>2024-09-11T20:23:10Z</time>
      </trkpt>
      <trkpt lat="50.61453" lon="3.40907">
        <ele>19</ele>
        <time>2024-09-11T20:23:33Z</time>
      </trkpt>
      <trkpt lat="50.6147" lon="3.40956">
        <ele>19</ele>
        <time>2024-09-11T20:23:41Z</time>
      </trkpt>
      <trkpt lat="50.61502" lon="3.40933">
        <ele>19</ele>
        <time>2024-09-11T20:23:50Z</time>
      </trkpt>
      <trkpt lat="50.61482" lon="3.40887">
        <ele>20</ele>
        <time>2024-09-11T20:23:58Z</time>
      </trkpt>
      <trkpt lat="50.6155" lon="3.40872">
        <ele>20</ele>
        <time>2024-09-11T20:24:14Z</time>
      </trkpt>
      <trkpt lat="50.61768" lon="3.40796">
        <ele>21</ele>
        <time>2024-09-11T20:25:06Z</time>
      </trkpt>
      <trkpt lat="50.61845" lon="3.40728">
        <ele>21</ele>
        <time>2024-09-11T20:25:27Z</time>
      </trkpt>
      <trkpt lat="50.62071" lon="3.40662">
        <ele>18</ele>
        <time>2024-09-11T20:26:20Z</time>
      </trkpt>
      <trkpt lat="50.62188" lon="3.40715">
        <ele>18</ele>
        <time>2024-09-11T20:26:49Z</time>
      </trkpt>
      <trkpt lat="50.62499" lon="3.4087">
        <ele>17</ele>
        <time>2024-09-11T20:28:05Z</time>
      </trkpt>
      <trkpt lat="50.62521" lon="3.40842">
        <ele>18</ele>
        <time>2024-09-11T20:28:12Z</time>
      </trkpt>
      <trkpt lat="50.62574" lon="3.40677">
        <ele>18</ele>
        <time>2024-09-11T20:28:39Z</time>
      </trkpt>
      <trkpt lat="50.62612" lon="3.40374">
        <ele>21</ele>
        <time>2024-09-11T20:29:25Z</time>
      </trkpt>
      <trkpt lat="50.62638" lon="3.40304">
        <ele>21</ele>
        <time>2024-09-11T20:29:37Z</time>
      </trkpt>
      <trkpt lat="50.62611" lon="3.40177">
        <ele>24</ele>
        <time>2024-09-11T20:29:57Z</time>
      </trkpt>
      <trkpt lat="50.62646" lon="3.39819">
        <ele>22</ele>
        <time>2024-09-11T20:30:50Z</time>
      </trkpt>
      <trkpt lat="50.62707" lon="3.39469">
        <ele>20</ele>
        <time>2024-09-11T20:31:44Z</time>
      </trkpt>
      <trkpt lat="50.62829" lon="3.39077">
        <ele>25</ele>
        <time>2024-09-11T20:32:49Z</time>
      </trkpt>
      <trkpt lat="50.62868" lon="3.39104">
        <ele>25</ele>
        <time>2024-09-11T20:32:59Z</time>
      </trkpt>
      <trkpt lat="50.62903" lon="3.39113">
        <ele>25</ele>
        <time>2024-09-11T20:33:07Z</time>
      </trkpt>
      <trkpt lat="50.62924" lon="3.3912">
        <ele>24</ele>
        <time>2024-09-11T20:33:12Z</time>
      </trkpt>
      <trkpt lat="50.6306" lon="3.39163">
        <ele>20</ele>
        <time>2024-09-11T20:33:44Z</time>
      </trkpt>
      <trkpt lat="50.63083" lon="3.39189">
        <ele>20</ele>
        <time>2024-09-11T20:33:51Z</time>
      </trkpt>
      <trkpt lat="50.63255" lon="3.39172">
        <ele>21</ele>
        <time>2024-09-11T20:34:31Z</time>
      </trkpt>
      <trkpt lat="50.63259" lon="3.38942">
        <ele>21</ele>
        <time>2024-09-11T20:35:05Z</time>
      </trkpt>
      <trkpt lat="50.63271" lon="3.38914">
        <ele>20</ele>
        <time>2024-09-11T20:35:10Z</time>
      </trkpt>
      <trkpt lat="50.63314" lon="3.38901">
        <ele>20</ele>
        <time>2024-09-11T20:35:21Z</time>
      </trkpt>
      <trkpt lat="50.6334" lon="3.38866">
        <ele>20</ele>
        <time>2024-09-11T20:35:29Z</time>
      </trkpt>
      <trkpt lat="50.63393" lon="3.38935">
        <ele>22</ele>
        <time>2024-09-11T20:35:45Z</time>
      </trkpt>
      <trkpt lat="50.6346" lon="3.3892">
        <ele>22</ele>
        <time>2024-09-11T20:36:00Z</time>
      </trkpt>
      <trkpt lat="50.63551" lon="3.38935">
        <ele>21</ele>
        <time>2024-09-11T20:36:22Z</time>
      </trkpt>
      <trkpt lat="50.63637" lon="3.38701">
        <ele>18</ele>
        <time>2024-09-11T20:37:02Z</time>
      </trkpt>
      <trkpt lat="50.6376" lon="3.38482">
        <ele>18</ele>
        <time>2024-09-11T20:37:45Z</time>
      </trkpt>
      <trkpt lat="50.63764" lon="3.38367">
        <ele>18</ele>
        <time>2024-09-11T20:38:02Z</time>
      </trkpt>
      <trkpt lat="50.63755" lon="3.38334">
        <ele>18</ele>
        <time>2024-09-11T20:38:08Z</time>
      </trkpt>
      <trkpt lat="50.63738" lon="3.38299">
        <ele>18</ele>
        <time>2024-09-11T20:38:14Z</time>
      </trkpt>
      <trkpt lat="50.63781" lon="3.38274">
        <ele>19</ele>
        <time>2024-09-11T20:38:25Z</time>
      </trkpt>
      <trkpt lat="50.63805" lon="3.38129">
        <ele>22</ele>
        <time>2024-09-11T20:38:47Z</time>
      </trkpt>
      <trkpt lat="50.63803" lon="3.38119">
        <ele>22</ele>
        <time>2024-09-11T20:38:48Z</time>
      </trkpt>
      <trkpt lat="50.63809" lon="3.38081">
        <ele>22</ele>
        <time>2024-09-11T20:38:54Z</time>
      </trkpt>
      <trkpt lat="50.63852" lon="3.38086">
        <ele>22</ele>
        <time>2024-09-11T20:39:04Z</time>
      </trkpt>
    </trkseg>
  </trk>
</gpx>